CYVO

Val-D'or Airport

Val-D'or, , Canada
TAF AMD CYVO 122142Z 1221/1306 16005KT 1SM -SN VV010 TEMPO 1221/1224 3SM -SN OVC015 FM130000 17008KT P6SM -SN SCT008 BKN025 TEMPO 1300/1306 5SM -SN BKN008 OVC025 BECMG 1301/1303 22008KT RMK NXT FCST BY 130000Z
Issued Valid From Valid To
Nov-12 @ 21:42 UTC
(an hour ago)
Nov-12 @ 21:00 UTC
(2 hours ago)
Nov-13 @ 06:00 UTC
(in 7 hours)
Nov-12 @ 21:00 to Nov-13 @ 00:00
TAF AMD CYVO 122142Z 1221/1306 16005KT 1SM -SN VV010
Wind Visibility Clouds Conditions
160° at 5 knots 1 miles
  • Vertical visibility at 1,000' AGL
  • Light Snow
Temporary Nov-12 @ 21:00 to Nov-13 @ 00:00
TEMPO 1221/1224 3SM -SN OVC015
Visibility Clouds Conditions
3 miles
  • Overcast at 1,500' AGL
  • Light Snow
From Nov-13 @ 00:00 to Nov-13 @ 01:00
FM130000 17008KT P6SM -SN SCT008 BKN025
Wind Visibility Clouds Conditions
170° at 8 knots Greater than 6 miles
  • Scattered at 800' AGL
  • Broken at 2,500' AGL
  • Light Snow
Temporary Nov-13 @ 00:00 to Nov-13 @ 06:00
TEMPO 1300/1306 5SM -SN BKN008 OVC025
Visibility Clouds Conditions
5 miles
  • Broken at 800' AGL
  • Overcast at 2,500' AGL
  • Light Snow
Becoming Nov-13 @ 01:00 to Nov-13 @ 06:00
BECMG 1301/1303 22008KT RMK NXT FCST BY 130000Z
Wind Visibility Clouds Conditions
220° at 8 knots Greater than 6 miles
  • Scattered at 800' AGL
  • Broken at 2,500' AGL
  • Light Snow
TAF AMD CYVO 122142Z 1221/1306 16005KT 1SM -SN VV010 TEMPO 1221/1224 3SM -SN OVC015 FM130000 17008KT P6SM -SN SCT008 BKN025 TEMPO 1300/1306 5SM -SN BKN008 OVC025 BECMG 1301/1303 22008KT RMK NXT FCST BY 130000Z
Issued Nov-12 @ 21:42 UTC
(an hour ago)
Valid From Nov-12 @ 21:00 UTC
(2 hours ago)
Valid To Nov-13 @ 06:00 UTC
(in 7 hours)
Nov-12 @ 21:00 - Nov-13 @ 00:00
Wind Visibility
160° at 5 knots 1 miles
Clouds
  • Vertical visibility at 1,000' AGL
Conditions
  • Light Snow
Temporary Nov-12 @ 21:00 - Nov-13 @ 00:00
Clouds
  • Overcast at 1,500' AGL
Conditions
  • Light Snow
From Nov-13 @ 00:00 - Nov-13 @ 01:00
Wind Visibility
170° at 8 knots Greater than 6 miles
Clouds
  • Scattered at 800' AGL
  • Broken at 2,500' AGL
Conditions
  • Light Snow
Temporary Nov-13 @ 00:00 - Nov-13 @ 06:00
Clouds
  • Broken at 800' AGL
  • Overcast at 2,500' AGL
Conditions
  • Light Snow
Becoming Nov-13 @ 01:00 - Nov-13 @ 06:00
Wind Visibility
220° at 8 knots Greater than 6 miles
Clouds
  • Scattered at 800' AGL
  • Broken at 2,500' AGL
Conditions
  • Light Snow